createdAt,value
2018-06-04T00:00:33.645Z,17.38
2018-06-04T00:03:02.689Z,17.33
2018-06-04T00:05:31.641Z,17.32
2018-06-04T00:08:00.594Z,17.30
2018-06-04T00:10:29.587Z,17.24
2018-06-04T00:12:58.627Z,17.24
2018-06-04T00:15:27.609Z,17.22
2018-06-04T00:17:56.653Z,17.23
2018-06-04T00:20:25.601Z,17.21
2018-06-04T00:22:54.639Z,17.14
2018-06-04T00:25:23.621Z,17.12
2018-06-04T00:27:52.676Z,17.09
2018-06-04T00:30:21.748Z,17.08
2018-06-04T00:32:50.761Z,17.07
2018-06-04T00:35:19.751Z,17.06
2018-06-04T00:40:40.095Z,17.00
2018-06-04T00:43:09.081Z,16.93
2018-06-04T00:45:38.135Z,16.97
2018-06-04T00:48:07.128Z,16.94
2018-06-04T00:50:36.118Z,16.91
2018-06-04T00:53:05.144Z,16.83
2018-06-04T00:55:44.354Z,16.90
2018-06-04T00:58:14.477Z,16.88
2018-06-04T01:00:44.380Z,16.88
2018-06-04T01:03:13.348Z,16.84
2018-06-04T01:05:42.357Z,16.80
2018-06-04T01:08:11.404Z,16.81
2018-06-04T01:10:40.453Z,16.78
2018-06-04T01:13:09.519Z,16.76
2018-06-04T01:15:38.528Z,16.76
2018-06-04T01:18:07.487Z,16.75
2018-06-04T01:20:37.065Z,16.69
2018-06-04T01:23:06.038Z,16.68
2018-06-04T01:25:35.007Z,16.68
2018-06-04T01:28:04.092Z,16.67
2018-06-04T01:30:33.083Z,16.71
2018-06-04T01:33:02.161Z,16.63
2018-06-04T01:35:31.152Z,16.62
2018-06-04T01:38:00.140Z,16.68
2018-06-04T01:40:29.164Z,16.59
2018-06-04T01:42:58.140Z,16.54
2018-06-04T01:45:27.200Z,16.57
2018-06-04T01:47:56.231Z,16.61
2018-06-04T01:50:26.010Z,16.70
2018-06-04T01:52:54.993Z,16.70
2018-06-04T01:55:24.098Z,16.74
2018-06-04T01:57:53.077Z,16.78
2018-06-04T02:00:22.089Z,16.83
2018-06-04T02:02:51.068Z,16.87
2018-06-04T02:05:20.062Z,16.89
2018-06-04T02:07:49.044Z,17.01
2018-06-04T02:12:50.127Z,16.96
2018-06-04T02:15:19.150Z,17.03
2018-06-04T02:17:48.125Z,17.11
2018-06-04T02:20:17.191Z,17.09
2018-06-04T02:22:46.889Z,17.13
2018-06-04T02:25:15.936Z,17.15
2018-06-04T02:27:44.970Z,17.17
2018-06-04T02:30:13.981Z,17.12
2018-06-04T02:32:42.988Z,17.10
2018-06-04T02:35:12.150Z,17.09
2018-06-04T02:37:41.206Z,17.12
2018-06-04T02:40:10.290Z,17.16
2018-06-04T02:42:39.372Z,17.07
2018-06-04T02:45:08.362Z,17.11
2018-06-04T02:47:37.351Z,17.05
2018-06-04T02:50:06.365Z,16.97
2018-06-04T02:52:35.451Z,16.92
2018-06-04T02:55:04.412Z,16.91
2018-06-04T02:57:33.399Z,16.88
2018-06-04T03:00:02.390Z,16.91
2018-06-04T03:02:31.339Z,16.90
2018-06-04T03:05:00.360Z,16.90
2018-06-04T03:07:29.980Z,16.86
2018-06-04T03:09:59.017Z,16.82
2018-06-04T03:12:27.991Z,16.81
2018-06-04T03:14:56.970Z,16.80
2018-06-04T03:17:26.246Z,16.79
2018-06-04T03:19:55.254Z,16.76
2018-06-04T03:22:24.218Z,16.80
2018-06-04T03:24:53.191Z,16.71
2018-06-04T03:27:22.172Z,16.72
2018-06-04T03:29:51.161Z,16.71
2018-06-04T03:32:20.136Z,16.70
2018-06-04T03:34:49.169Z,16.66
2018-06-04T03:37:18.151Z,16.66
2018-06-04T03:39:47.158Z,16.70
2018-06-04T03:42:16.135Z,16.70
2018-06-04T03:44:45.140Z,16.72
2018-06-04T03:47:14.180Z,16.69
2018-06-04T03:49:43.179Z,16.72
2018-06-04T03:52:12.196Z,16.65
2018-06-04T03:54:41.192Z,16.66
2018-06-04T03:57:10.227Z,16.71
2018-06-04T03:59:39.232Z,16.71
2018-06-04T04:02:08.288Z,16.65
2018-06-04T04:04:37.351Z,16.70
2018-06-04T04:07:06.339Z,16.76
2018-06-04T04:09:35.369Z,16.76
2018-06-04T04:12:04.358Z,16.76
2018-06-04T04:14:33.341Z,16.81
2018-06-04T04:17:02.364Z,16.82
2018-06-04T04:19:31.353Z,16.85
2018-06-04T04:22:00.340Z,16.86
2018-06-04T04:24:29.334Z,16.91
2018-06-04T04:26:58.543Z,16.93
2018-06-04T04:29:27.799Z,16.97
2018-06-04T04:31:56.770Z,17.05
2018-06-04T04:34:25.784Z,17.12
2018-06-04T04:36:54.783Z,17.17
2018-06-04T04:39:23.783Z,17.15
2018-06-04T04:41:52.753Z,17.20
2018-06-04T04:44:21.765Z,17.22
2018-06-04T04:46:50.771Z,17.22
2018-06-04T04:49:19.764Z,17.20
2018-06-04T04:51:49.256Z,17.19
2018-06-04T04:54:18.243Z,17.18
2018-06-04T04:56:47.361Z,17.23
2018-06-04T04:59:16.347Z,17.30
2018-06-04T05:01:45.373Z,17.38
2018-06-04T05:04:14.454Z,17.47
2018-06-04T05:06:43.571Z,17.54
2018-06-04T05:09:12.680Z,17.55
2018-06-04T05:11:41.671Z,17.62
2018-06-04T05:14:11.694Z,17.60
2018-06-04T05:16:40.695Z,17.73
2018-06-04T05:19:09.752Z,17.83
2018-06-04T05:21:38.837Z,17.98
2018-06-04T05:24:07.828Z,18.06
2018-06-04T05:26:36.872Z,18.16
2018-06-04T05:29:05.876Z,18.24
2018-06-04T05:31:34.856Z,18.32
2018-06-04T05:34:03.822Z,18.45
2018-06-04T05:36:32.902Z,18.65
2018-06-04T05:39:01.892Z,18.80
2018-06-04T05:41:30.891Z,19.08
2018-06-04T05:43:59.908Z,19.37
2018-06-04T05:46:28.941Z,19.43
2018-06-04T05:48:58.557Z,19.63
2018-06-04T05:51:27.574Z,19.73
2018-06-04T05:53:56.531Z,20.06
2018-06-04T05:56:25.505Z,20.02
2018-06-04T05:58:54.478Z,20.09
2018-06-04T06:01:24.394Z,20.19
2018-06-04T06:03:53.387Z,20.79
2018-06-04T06:06:22.386Z,21.59
2018-06-04T06:08:51.995Z,23.00
2018-06-04T06:11:20.991Z,23.87
2018-06-04T06:13:49.970Z,24.48
2018-06-04T06:16:19.947Z,24.46
2018-06-04T06:18:48.977Z,25.30
2018-06-04T06:21:17.972Z,26.23
2018-06-04T06:23:47.012Z,27.61
2018-06-04T06:26:16.381Z,27.55
2018-06-04T06:28:45.364Z,27.36
2018-06-04T06:31:14.404Z,27.92
2018-06-04T06:33:43.417Z,28.47
2018-06-04T06:36:12.411Z,28.91
2018-06-04T06:38:41.444Z,29.06
2018-06-04T06:41:10.718Z,29.50
2018-06-04T06:43:39.716Z,29.34
2018-06-04T06:46:08.992Z,28.11
2018-06-04T06:48:38.053Z,28.04
2018-06-04T06:51:07.315Z,27.94
2018-06-04T06:53:36.297Z,27.80
2018-06-04T06:56:05.556Z,28.39
2018-06-04T06:58:34.567Z,28.75
2018-06-04T07:01:03.747Z,29.79
2018-06-04T07:03:32.707Z,29.30
2018-06-04T07:06:01.968Z,30.51
2018-06-04T07:08:30.953Z,30.67
2018-06-04T07:11:00.183Z,30.56
2018-06-04T07:13:29.152Z,30.91
2018-06-04T07:15:58.276Z,30.00
2018-06-04T07:18:27.346Z,28.71
2018-06-04T07:20:56.420Z,27.99
2018-06-04T07:23:25.553Z,28.76
2018-06-04T07:25:54.621Z,29.15
2018-06-04T07:28:23.619Z,28.58
2018-06-04T07:30:52.589Z,28.63
2018-06-04T07:33:21.749Z,29.27
2018-06-04T07:35:50.754Z,29.68
2018-06-04T07:38:19.761Z,29.50
2018-06-04T07:40:48.894Z,28.84
2018-06-04T07:43:17.911Z,28.44
2018-06-04T07:45:46.907Z,28.13
2018-06-04T07:48:15.898Z,28.47
2018-06-04T07:50:44.928Z,29.54
2018-06-04T07:53:13.923Z,29.55
2018-06-04T07:55:43.013Z,29.68
2018-06-04T07:58:12.088Z,30.50
2018-06-04T08:00:41.333Z,30.38
2018-06-04T08:03:10.456Z,29.95
2018-06-04T08:05:39.489Z,30.08
2018-06-04T08:08:08.499Z,30.35
2018-06-04T08:10:37.652Z,31.18
2018-06-04T08:13:06.690Z,31.19
2018-06-04T08:15:35.664Z,30.68
2018-06-04T08:18:04.749Z,30.77
2018-06-04T08:20:33.700Z,31.46
2018-06-04T08:23:02.708Z,31.77
2018-06-04T08:25:31.678Z,31.87
2018-06-04T08:28:00.719Z,32.42
2018-06-04T08:30:29.702Z,32.43
2018-06-04T08:32:58.686Z,32.81
2018-06-04T08:35:27.707Z,33.36
2018-06-04T08:37:56.755Z,32.83
2018-06-04T08:40:25.763Z,32.89
2018-06-04T08:42:54.748Z,32.61
2018-06-04T08:45:23.764Z,32.93
2018-06-04T08:47:52.750Z,33.29
2018-06-04T08:50:21.734Z,32.38
2018-06-04T08:52:50.835Z,31.77
2018-06-04T08:55:19.896Z,30.38
2018-06-04T08:57:48.945Z,30.25
2018-06-04T09:00:17.928Z,31.22
2018-06-04T09:02:46.909Z,31.15
2018-06-04T09:05:15.912Z,30.83
2018-06-04T09:07:44.931Z,31.08
2018-06-04T09:10:13.948Z,31.58
2018-06-04T09:12:42.918Z,31.31
2018-06-04T09:15:13.073Z,30.98
2018-06-04T09:17:42.106Z,31.68
2018-06-04T09:20:11.081Z,32.65
2018-06-04T09:22:40.088Z,32.75
2018-06-04T09:25:09.111Z,33.52
2018-06-04T09:27:38.081Z,33.25
2018-06-04T09:30:07.454Z,33.11
2018-06-04T09:32:36.441Z,33.02
2018-06-04T09:35:05.455Z,33.05
2018-06-04T09:37:34.560Z,31.55
2018-06-04T09:40:03.558Z,31.21
2018-06-04T09:42:32.533Z,31.84
2018-06-04T09:45:01.580Z,32.07
2018-06-04T09:47:30.565Z,33.00
2018-06-04T09:49:59.546Z,32.58
2018-06-04T09:52:28.676Z,31.69
2018-06-04T09:54:57.671Z,31.33
2018-06-04T09:57:26.738Z,30.69
2018-06-04T09:59:57.618Z,31.12
2018-06-04T10:02:26.688Z,31.60
2018-06-04T10:04:55.677Z,31.16
2018-06-04T10:07:24.702Z,31.83
2018-06-04T10:09:53.740Z,32.78
2018-06-04T10:12:24.014Z,31.92
2018-06-04T10:14:53.063Z,32.14
2018-06-04T10:17:22.037Z,32.97
2018-06-04T10:19:51.006Z,33.30
2018-06-04T10:22:19.999Z,32.74
2018-06-04T10:24:48.971Z,33.45
2018-06-04T10:27:17.977Z,34.29
2018-06-04T10:29:46.930Z,33.61
2018-06-04T10:32:15.960Z,33.34
2018-06-04T10:34:45.003Z,33.74
2018-06-04T10:37:13.969Z,33.74
2018-06-04T10:39:42.954Z,33.32
2018-06-04T10:42:11.941Z,33.38
2018-06-04T10:44:40.995Z,32.74
2018-06-04T10:47:09.995Z,33.64
2018-06-04T10:49:38.995Z,33.80
2018-06-04T10:52:08.005Z,34.20
2018-06-04T10:54:36.988Z,34.09
2018-06-04T10:57:05.966Z,34.12
2018-06-04T10:59:34.992Z,34.32
2018-06-04T11:02:03.956Z,33.76
2018-06-04T11:04:32.959Z,32.53
2018-06-04T11:07:01.915Z,31.41
2018-06-04T11:09:30.915Z,31.49
2018-06-04T11:11:59.960Z,31.57
2018-06-04T11:14:28.926Z,31.56
2018-06-04T11:16:57.935Z,32.92
2018-06-04T11:19:26.945Z,34.11
2018-06-04T11:21:55.915Z,34.15
2018-06-04T11:24:24.882Z,33.62
2018-06-04T11:26:53.924Z,32.36
2018-06-04T11:29:22.867Z,31.48
2018-06-04T11:31:51.869Z,30.48
2018-06-04T11:34:20.847Z,30.59
2018-06-04T11:36:49.828Z,29.96
2018-06-04T11:39:18.823Z,29.37
2018-06-04T11:41:47.870Z,29.01
2018-06-04T11:44:16.841Z,29.19
2018-06-04T11:46:46.026Z,29.17
2018-06-04T11:49:16.007Z,29.08
2018-06-04T11:51:45.055Z,28.71
2018-06-04T11:54:14.373Z,28.78
2018-06-04T11:56:43.375Z,28.65
2018-06-04T11:59:12.305Z,28.66
2018-06-04T12:01:41.408Z,28.88
2018-06-04T12:04:10.327Z,28.91
2018-06-04T12:06:39.352Z,28.83
2018-06-04T12:09:08.482Z,28.76
2018-06-04T12:11:37.527Z,28.48
2018-06-04T12:14:06.492Z,29.00
2018-06-04T12:16:35.520Z,28.69
2018-06-04T12:19:04.557Z,29.39
2018-06-04T12:21:33.595Z,30.44
2018-06-04T12:24:02.569Z,31.59
2018-06-04T12:26:31.604Z,30.50
2018-06-04T12:29:00.580Z,29.86
2018-06-04T12:31:29.558Z,30.76
2018-06-04T12:33:58.564Z,31.26
2018-06-04T12:36:27.517Z,31.98
2018-06-04T12:38:56.562Z,33.32
2018-06-04T12:41:25.592Z,33.43
2018-06-04T12:43:54.612Z,34.75
2018-06-04T12:46:23.565Z,33.81
2018-06-04T12:48:52.630Z,34.53
2018-06-04T12:51:21.631Z,35.90
2018-06-04T12:53:50.632Z,35.72
2018-06-04T12:56:19.611Z,35.13
2018-06-04T12:58:48.615Z,36.21
2018-06-04T13:01:17.623Z,36.19
2018-06-04T13:03:46.667Z,36.02
2018-06-04T13:06:16.759Z,35.71
2018-06-04T13:08:45.740Z,35.39
2018-06-04T13:11:14.770Z,34.68
2018-06-04T13:13:43.739Z,34.67
2018-06-04T13:16:12.788Z,35.56
2018-06-04T13:18:41.770Z,35.46
2018-06-04T13:21:10.754Z,34.72
2018-06-04T13:23:39.702Z,35.56
2018-06-04T13:26:08.696Z,35.72
2018-06-04T13:28:37.664Z,35.20
2018-06-04T13:31:06.815Z,35.90
2018-06-04T13:33:35.799Z,35.53
2018-06-04T13:36:04.796Z,34.18
2018-06-04T13:38:38.208Z,33.96
2018-06-04T13:41:07.450Z,34.51
2018-06-04T13:43:36.449Z,34.37
2018-06-04T13:46:05.499Z,35.49
2018-06-04T13:48:34.510Z,35.44
2018-06-04T13:51:03.513Z,34.85
2018-06-04T13:53:32.576Z,33.54
2018-06-04T13:56:01.669Z,33.37
2018-06-04T13:58:30.601Z,33.81
2018-06-04T14:00:59.590Z,32.67
2018-06-04T14:03:28.645Z,32.48
2018-06-04T14:05:57.618Z,33.21
2018-06-04T14:08:26.879Z,34.41
2018-06-04T14:10:56.251Z,34.23
2018-06-04T14:13:25.250Z,34.04
2018-06-04T14:15:54.213Z,33.22
2018-06-04T14:18:23.283Z,32.41
2018-06-04T14:20:52.382Z,31.28
2018-06-04T14:23:21.372Z,30.10
2018-06-04T14:25:50.432Z,29.66
2018-06-04T14:28:19.444Z,29.07
2018-06-04T14:30:48.443Z,28.57
2018-06-04T14:33:17.611Z,28.18
2018-06-04T14:35:46.743Z,28.20
2018-06-04T14:38:15.846Z,28.13
2018-06-04T14:40:44.826Z,28.27
2018-06-04T14:43:13.986Z,28.57
2018-06-04T14:45:42.952Z,28.55
2018-06-04T14:48:14.816Z,28.46
2018-06-04T14:50:44.956Z,28.90
2018-06-04T14:53:14.046Z,29.42
2018-06-04T14:55:43.079Z,29.55
2018-06-04T14:58:12.114Z,28.95
2018-06-04T15:00:41.144Z,28.89
2018-06-04T15:03:10.103Z,28.90
2018-06-04T15:05:39.075Z,28.71
2018-06-04T15:08:08.036Z,28.65
2018-06-04T15:10:37.017Z,28.40
2018-06-04T15:13:06.028Z,28.08
2018-06-04T15:15:35.009Z,27.76
2018-06-04T15:18:05.057Z,27.70
2018-06-04T15:20:34.080Z,27.74
2018-06-04T15:23:03.115Z,27.82
2018-06-04T15:25:32.168Z,27.90
2018-06-04T15:28:01.228Z,28.03
2018-06-04T15:30:30.396Z,28.13
2018-06-04T15:32:59.517Z,28.14
2018-06-04T15:35:28.666Z,28.26
2018-06-04T15:37:57.732Z,28.44
2018-06-04T15:40:26.720Z,28.19
2018-06-04T15:42:55.731Z,27.91
2018-06-04T15:45:24.806Z,28.33
2018-06-04T15:47:53.887Z,28.25
2018-06-04T15:50:22.978Z,28.50
2018-06-04T15:52:52.036Z,28.51
2018-06-04T15:55:21.066Z,28.60
2018-06-04T15:57:50.072Z,28.25
2018-06-04T16:00:19.079Z,28.31
2018-06-04T16:02:48.167Z,28.79
2018-06-04T16:05:17.280Z,29.18
2018-06-04T16:07:46.436Z,28.93
2018-06-04T16:10:22.069Z,28.90
2018-06-04T16:12:51.103Z,28.90
2018-06-04T16:15:20.121Z,28.89
2018-06-04T16:17:49.088Z,28.54
2018-06-04T16:20:18.076Z,28.41
2018-06-04T16:22:47.167Z,28.11
2018-06-04T16:25:16.183Z,28.01
2018-06-04T16:27:45.310Z,28.21
2018-06-04T16:30:14.377Z,28.41
2018-06-04T16:32:43.515Z,28.19
2018-06-04T16:35:12.666Z,28.29
2018-06-04T16:37:41.659Z,28.13
2018-06-04T16:40:10.759Z,27.91
2018-06-04T16:42:39.887Z,27.83
2018-06-04T16:45:09.230Z,27.66
2018-06-04T16:47:38.287Z,27.37
2018-06-04T16:50:07.321Z,27.64
2018-06-04T16:52:36.429Z,27.47
2018-06-04T16:55:05.423Z,27.61
2018-06-04T16:57:34.427Z,27.59
2018-06-04T17:00:03.461Z,27.57
2018-06-04T17:02:32.697Z,27.65
2018-06-04T17:05:02.061Z,27.75
2018-06-04T17:07:31.101Z,27.56
2018-06-04T17:10:00.138Z,27.19
2018-06-04T17:12:29.196Z,27.29
2018-06-04T17:14:58.194Z,27.19
2018-06-04T17:17:27.854Z,27.17
2018-06-04T17:19:56.945Z,27.13
2018-06-04T17:22:25.903Z,26.98
2018-06-04T17:24:54.952Z,26.95
2018-06-04T17:27:24.008Z,26.74
2018-06-04T17:29:53.031Z,26.67
2018-06-04T17:32:22.043Z,26.50
2018-06-04T17:34:51.040Z,26.45
2018-06-04T17:37:20.116Z,26.27
2018-06-04T17:39:49.243Z,26.13
2018-06-04T17:42:18.290Z,26.14
2018-06-04T17:44:47.351Z,26.03
2018-06-04T17:47:16.308Z,26.06
2018-06-04T17:49:45.351Z,25.93
2018-06-04T17:52:14.333Z,25.88
2018-06-04T17:54:43.297Z,25.85
2018-06-04T17:57:12.328Z,25.91
2018-06-04T17:59:41.300Z,25.87
2018-06-04T18:02:10.300Z,25.72
2018-06-04T18:04:39.313Z,25.61
2018-06-04T18:07:08.332Z,25.55
2018-06-04T18:09:37.505Z,25.39
2018-06-04T18:12:06.602Z,25.38
2018-06-04T18:14:35.699Z,25.26
2018-06-04T18:17:04.757Z,25.19
2018-06-04T18:19:33.783Z,25.11
2018-06-04T18:22:03.200Z,25.02
2018-06-04T18:24:32.425Z,24.93
2018-06-04T18:27:01.716Z,24.83
2018-06-04T18:29:30.794Z,24.74
2018-06-04T18:31:59.878Z,24.65
2018-06-04T18:34:30.281Z,24.56
2018-06-04T18:36:59.273Z,24.46
2018-06-04T18:39:28.244Z,24.35
2018-06-04T18:41:57.242Z,24.22
2018-06-04T18:44:28.712Z,24.05
2018-06-04T18:46:57.713Z,23.94
2018-06-04T18:49:26.710Z,23.82
2018-06-04T18:51:55.778Z,23.72
2018-06-04T18:54:24.773Z,23.63
2018-06-04T18:56:53.742Z,23.52
2018-06-04T18:59:22.735Z,23.41
2018-06-04T19:01:51.725Z,23.33
2018-06-04T19:04:20.748Z,23.28
2018-06-04T19:06:49.763Z,23.14
2018-06-04T19:09:18.808Z,23.01
2018-06-04T19:11:47.743Z,22.96
2018-06-04T19:14:16.720Z,22.88
2018-06-04T19:16:45.710Z,22.78
2018-06-04T19:19:14.786Z,22.71
2018-06-04T19:21:43.756Z,22.59
2018-06-04T19:24:12.904Z,22.50
2018-06-04T19:26:41.921Z,22.44
2018-06-04T19:29:10.897Z,22.33
2018-06-04T19:31:39.876Z,22.25
2018-06-04T19:34:09.034Z,22.17
2018-06-04T19:36:38.053Z,22.14
2018-06-04T19:39:08.933Z,22.06
2018-06-04T19:41:38.011Z,21.98
2018-06-04T19:44:07.214Z,21.99
2018-06-04T19:46:36.331Z,21.90
2018-06-04T19:49:05.725Z,21.84
2018-06-04T19:51:34.726Z,21.78
2018-06-04T19:54:03.754Z,21.73
2018-06-04T19:56:32.775Z,21.71
2018-06-04T19:59:01.766Z,21.67
2018-06-04T20:01:30.771Z,21.63
2018-06-04T20:04:01.557Z,21.64
2018-06-04T20:06:30.791Z,21.63
2018-06-04T20:08:59.865Z,21.60
2018-06-04T20:11:28.859Z,21.59
2018-06-04T20:13:57.839Z,21.60
2018-06-04T20:16:26.889Z,21.59
2018-06-04T20:18:55.883Z,21.55
2018-06-04T20:21:24.884Z,21.53
2018-06-04T20:23:53.989Z,21.45
2018-06-04T20:26:22.945Z,21.43
2018-06-04T20:28:52.065Z,21.36
2018-06-04T20:31:21.068Z,21.32
2018-06-04T20:33:50.050Z,21.34
2018-06-04T20:36:19.014Z,21.38
2018-06-04T20:38:48.025Z,21.41
2018-06-04T20:41:17.107Z,21.44
2018-06-04T20:43:46.247Z,21.43
2018-06-04T20:46:15.330Z,21.40
2018-06-04T20:48:44.409Z,21.42
2018-06-04T20:51:13.561Z,21.44
2018-06-04T20:53:42.589Z,21.45
2018-06-04T20:56:11.726Z,21.44
2018-06-04T20:58:40.732Z,21.45
2018-06-04T21:01:09.829Z,21.44
2018-06-04T21:03:38.837Z,21.41
2018-06-04T21:06:07.870Z,21.33
2018-06-04T21:08:36.886Z,21.29
2018-06-04T21:11:06.000Z,21.27
2018-06-04T21:13:35.124Z,21.26
2018-06-04T21:16:04.111Z,21.19
2018-06-04T21:18:33.147Z,21.20
2018-06-04T21:21:02.200Z,21.15
2018-06-04T21:23:31.636Z,21.12
2018-06-04T21:26:00.736Z,21.06
2018-06-04T21:28:29.669Z,21.01
2018-06-04T21:30:58.641Z,20.94
2018-06-04T21:33:27.625Z,20.87
2018-06-04T21:35:56.692Z,20.85
2018-06-04T21:38:25.721Z,20.80
2018-06-04T21:40:54.895Z,20.77
2018-06-04T21:43:23.962Z,20.75
2018-06-04T21:45:55.994Z,20.70
2018-06-04T21:48:25.244Z,20.66
2018-06-04T21:50:54.341Z,20.58
2018-06-04T21:53:23.345Z,20.51
2018-06-04T21:55:52.322Z,20.42
2018-06-04T21:58:21.323Z,20.32
2018-06-04T22:00:50.393Z,20.22
2018-06-04T22:03:19.390Z,20.11
2018-06-04T22:05:48.518Z,20.05
2018-06-04T22:08:17.757Z,19.99
2018-06-04T22:10:46.743Z,19.98
2018-06-04T22:13:15.739Z,19.82
2018-06-04T22:15:44.753Z,19.79
2018-06-04T22:18:13.852Z,19.74
2018-06-04T22:20:43.231Z,19.73
2018-06-04T22:23:12.331Z,19.63
2018-06-04T22:25:41.810Z,19.59
2018-06-04T22:28:10.847Z,19.59
2018-06-04T22:30:40.048Z,19.53
2018-06-04T22:33:09.532Z,19.48
2018-06-04T22:35:38.579Z,19.44
2018-06-04T22:38:07.819Z,19.43
2018-06-04T22:40:36.809Z,19.38
2018-06-04T22:43:05.823Z,19.32
2018-06-04T22:45:35.283Z,19.29
2018-06-04T22:48:04.445Z,19.25
2018-06-04T22:50:33.451Z,19.21
2018-06-04T22:53:02.467Z,19.18
2018-06-04T22:55:31.530Z,19.17
2018-06-04T22:58:01.451Z,19.09
2018-06-04T23:00:33.105Z,19.00
2018-06-04T23:03:02.211Z,18.97
2018-06-04T23:05:31.316Z,18.92
2018-06-04T23:08:01.099Z,18.82
2018-06-04T23:10:30.142Z,18.82
2018-06-04T23:12:59.132Z,18.85
2018-06-04T23:15:28.095Z,18.88
2018-06-04T23:17:57.117Z,18.94
2018-06-04T23:20:26.297Z,18.96
2018-06-04T23:22:55.392Z,18.97
2018-06-04T23:25:24.414Z,19.01
2018-06-04T23:27:53.368Z,18.99
2018-06-04T23:30:22.372Z,18.97
2018-06-04T23:32:51.353Z,18.91
2018-06-04T23:35:20.587Z,18.91
2018-06-04T23:37:49.620Z,18.97
2018-06-04T23:40:18.757Z,18.96
2018-06-04T23:42:47.859Z,18.94
2018-06-04T23:45:16.887Z,18.91
2018-06-04T23:47:46.161Z,18.90
2018-06-04T23:50:15.928Z,18.95
2018-06-04T23:52:45.029Z,18.94
2018-06-04T23:55:14.183Z,18.93
2018-06-04T23:57:43.159Z,18.94
